sensor_id;sensor_type;location;lat;lon;timestamp;pressure;altitude;pressure_sealevel;temperature;humidity
59053;BME280;44843;44.728;10.396;2023-07-08T00:00:18;101000.72;;;23.66;100.00
59053;BME280;44843;44.728;10.396;2023-07-08T00:02:44;100999.16;;;23.63;100.00
59053;BME280;44843;44.728;10.396;2023-07-08T00:05:11;101004.28;;;23.49;100.00
59053;BME280;44843;44.728;10.396;2023-07-08T00:07:38;101005.88;;;23.33;100.00
59053;BME280;44843;44.728;10.396;2023-07-08T00:10:15;101004.78;;;23.18;100.00
59053;BME280;44843;44.728;10.396;2023-07-08T00:12:42;101010.31;;;23.24;100.00
59053;BME280;44843;44.728;10.396;2023-07-08T00:15:08;101010.78;;;23.20;100.00
59053;BME280;44843;44.728;10.396;2023-07-08T00:17:34;101004.72;;;23.36;100.00
59053;BME280;44843;44.728;10.396;2023-07-08T00:19:59;101001.22;;;23.35;100.00
59053;BME280;44843;44.728;10.396;2023-07-08T00:22:25;101000.75;;;23.40;100.00
59053;BME280;44843;44.728;10.396;2023-07-08T00:24:50;100990.44;;;23.45;100.00
59053;BME280;44843;44.728;10.396;2023-07-08T00:27:16;100989.25;;;23.39;100.00
59053;BME280;44843;44.728;10.396;2023-07-08T00:29:42;100981.84;;;23.51;100.00
59053;BME280;44843;44.728;10.396;2023-07-08T00:32:13;100977.25;;;23.70;100.00
59053;BME280;44843;44.728;10.396;2023-07-08T00:34:39;100971.91;;;23.70;100.00
59053;BME280;44843;44.728;10.396;2023-07-08T00:37:04;100986.38;;;23.67;100.00
59053;BME280;44843;44.728;10.396;2023-07-08T00:39:31;100987.03;;;23.61;100.00
59053;BME280;44843;44.728;10.396;2023-07-08T00:41:58;100973.91;;;23.59;100.00
59053;BME280;44843;44.728;10.396;2023-07-08T00:44:25;100972.22;;;23.58;100.00
59053;BME280;44843;44.728;10.396;2023-07-08T00:49:26;100976.28;;;23.36;100.00
59053;BME280;44843;44.728;10.396;2023-07-08T00:51:53;100983.63;;;23.42;100.00
59053;BME280;44843;44.728;10.396;2023-07-08T00:54:20;100989.78;;;23.17;100.00
59053;BME280;44843;44.728;10.396;2023-07-08T00:57:00;100984.81;;;23.22;100.00
59053;BME280;44843;44.728;10.396;2023-07-08T00:59:33;100986.31;;;23.16;100.00
59053;BME280;44843;44.728;10.396;2023-07-08T01:02:04;100992.25;;;23.10;100.00
59053;BME280;44843;44.728;10.396;2023-07-08T01:04:36;101006.69;;;23.08;100.00
59053;BME280;44843;44.728;10.396;2023-07-08T01:07:03;101002.22;;;22.90;100.00
59053;BME280;44843;44.728;10.396;2023-07-08T01:09:37;101009.16;;;23.01;100.00
59053;BME280;44843;44.728;10.396;2023-07-08T01:12:07;101003.00;;;23.00;100.00
59053;BME280;44843;44.728;10.396;2023-07-08T01:14:35;101001.22;;;22.91;100.00
59053;BME280;44843;44.728;10.396;2023-07-08T01:17:02;100995.59;;;22.94;100.00
59053;BME280;44843;44.728;10.396;2023-07-08T01:19:28;101010.78;;;23.02;100.00
59053;BME280;44843;44.728;10.396;2023-07-08T01:22:03;101003.03;;;22.91;100.00
59053;BME280;44843;44.728;10.396;2023-07-08T01:24:32;100996.69;;;22.83;100.00
59053;BME280;44843;44.728;10.396;2023-07-08T01:27:00;101001.06;;;22.93;100.00
59053;BME280;44843;44.728;10.396;2023-07-08T01:29:26;100996.56;;;22.93;100.00
59053;BME280;44843;44.728;10.396;2023-07-08T01:31:51;100994.94;;;22.92;100.00
59053;BME280;44843;44.728;10.396;2023-07-08T01:34:19;100989.78;;;22.73;100.00
59053;BME280;44843;44.728;10.396;2023-07-08T01:36:48;100994.09;;;22.74;100.00
59053;BME280;44843;44.728;10.396;2023-07-08T01:39:17;100982.72;;;22.81;100.00
59053;BME280;44843;44.728;10.396;2023-07-08T01:41:43;100975.50;;;22.92;100.00
59053;BME280;44843;44.728;10.396;2023-07-08T01:46:56;100973.66;;;22.92;100.00
59053;BME280;44843;44.728;10.396;2023-07-08T01:49:23;100965.72;;;22.74;100.00
59053;BME280;44843;44.728;10.396;2023-07-08T01:51:49;100966.63;;;22.65;100.00
59053;BME280;44843;44.728;10.396;2023-07-08T01:54:15;100954.25;;;22.56;100.00
59053;BME280;44843;44.728;10.396;2023-07-08T01:56:40;100955.41;;;22.53;100.00
59053;BME280;44843;44.728;10.396;2023-07-08T01:59:05;100953.59;;;22.54;100.00
59053;BME280;44843;44.728;10.396;2023-07-08T02:01:31;100952.28;;;22.58;100.00
59053;BME280;44843;44.728;10.396;2023-07-08T02:03:56;100943.34;;;22.59;100.00
59053;BME280;44843;44.728;10.396;2023-07-08T02:06:21;100941.88;;;22.65;100.00
59053;BME280;44843;44.728;10.396;2023-07-08T02:08:47;100939.56;;;22.44;100.00
59053;BME280;44843;44.728;10.396;2023-07-08T02:11:12;100937.06;;;22.42;100.00
59053;BME280;44843;44.728;10.396;2023-07-08T02:13:38;100937.88;;;22.42;100.00
59053;BME280;44843;44.728;10.396;2023-07-08T02:16:03;100934.22;;;22.61;100.00
59053;BME280;44843;44.728;10.396;2023-07-08T02:18:31;100932.75;;;22.67;100.00
59053;BME280;44843;44.728;10.396;2023-07-08T02:20:58;100942.41;;;22.68;100.00
59053;BME280;44843;44.728;10.396;2023-07-08T02:23:24;100940.91;;;22.66;100.00
59053;BME280;44843;44.728;10.396;2023-07-08T02:25:54;100941.72;;;22.66;100.00
59053;BME280;44843;44.728;10.396;2023-07-08T02:28:19;100938.50;;;22.54;100.00
59053;BME280;44843;44.728;10.396;2023-07-08T02:30:45;100953.91;;;22.51;100.00
59053;BME280;44843;44.728;10.396;2023-07-08T02:33:14;100955.09;;;22.38;100.00
59053;BME280;44843;44.728;10.396;2023-07-08T02:35:43;100944.44;;;22.30;100.00
59053;BME280;44843;44.728;10.396;2023-07-08T02:38:08;100935.66;;;22.20;100.00
59053;BME280;44843;44.728;10.396;2023-07-08T02:40:34;100931.06;;;22.22;100.00
59053;BME280;44843;44.728;10.396;2023-07-08T02:42:59;100927.50;;;22.31;100.00
59053;BME280;44843;44.728;10.396;2023-07-08T02:45:24;100923.41;;;22.37;100.00
59053;BME280;44843;44.728;10.396;2023-07-08T02:47:50;100916.84;;;22.49;100.00
59053;BME280;44843;44.728;10.396;2023-07-08T02:50:15;100922.63;;;22.45;100.00
59053;BME280;44843;44.728;10.396;2023-07-08T02:52:42;100908.59;;;22.52;100.00
59053;BME280;44843;44.728;10.396;2023-07-08T02:55:08;100910.41;;;22.34;100.00
59053;BME280;44843;44.728;10.396;2023-07-08T02:57:33;100905.78;;;22.36;100.00
59053;BME280;44843;44.728;10.396;2023-07-08T02:59:58;100907.22;;;22.48;100.00
59053;BME280;44843;44.728;10.396;2023-07-08T03:02:26;100911.25;;;22.52;100.00
59053;BME280;44843;44.728;10.396;2023-07-08T03:04:51;100912.53;;;22.48;100.00
59053;BME280;44843;44.728;10.396;2023-07-08T03:07:19;100913.44;;;22.57;100.00
59053;BME280;44843;44.728;10.396;2023-07-08T03:09:45;100915.69;;;22.70;100.00
59053;BME280;44843;44.728;10.396;2023-07-08T03:12:11;100914.69;;;22.71;100.00
59053;BME280;44843;44.728;10.396;2023-07-08T03:14:37;100919.78;;;22.64;100.00
59053;BME280;44843;44.728;10.396;2023-07-08T03:17:03;100923.28;;;22.65;100.00
59053;BME280;44843;44.728;10.396;2023-07-08T03:19:29;100918.22;;;22.53;100.00
59053;BME280;44843;44.728;10.396;2023-07-08T03:21:54;100917.97;;;22.65;100.00
59053;BME280;44843;44.728;10.396;2023-07-08T03:24:20;100915.75;;;22.60;100.00
59053;BME280;44843;44.728;10.396;2023-07-08T03:26:46;100921.56;;;22.37;100.00
59053;BME280;44843;44.728;10.396;2023-07-08T03:29:14;100921.88;;;22.34;100.00
59053;BME280;44843;44.728;10.396;2023-07-08T03:31:41;100918.13;;;22.09;100.00
59053;BME280;44843;44.728;10.396;2023-07-08T03:34:09;100914.63;;;21.91;100.00
59053;BME280;44843;44.728;10.396;2023-07-08T03:36:36;100918.13;;;21.91;100.00
59053;BME280;44843;44.728;10.396;2023-07-08T03:39:05;100920.25;;;21.88;100.00
59053;BME280;44843;44.728;10.396;2023-07-08T03:41:31;100924.50;;;21.80;100.00
59053;BME280;44843;44.728;10.396;2023-07-08T03:43:56;100922.44;;;21.92;100.00
59053;BME280;44843;44.728;10.396;2023-07-08T03:46:21;100932.03;;;21.75;100.00
59053;BME280;44843;44.728;10.396;2023-07-08T03:48:48;100924.53;;;21.71;100.00
59053;BME280;44843;44.728;10.396;2023-07-08T03:51:26;100932.13;;;21.66;100.00
59053;BME280;44843;44.728;10.396;2023-07-08T03:53:52;100938.59;;;21.53;100.00
59053;BME280;44843;44.728;10.396;2023-07-08T03:56:18;100937.97;;;21.69;100.00
59053;BME280;44843;44.728;10.396;2023-07-08T03:58:43;100931.56;;;21.62;100.00
59053;BME280;44843;44.728;10.396;2023-07-08T04:01:19;100942.84;;;21.74;100.00
59053;BME280;44843;44.728;10.396;2023-07-08T04:03:51;100942.25;;;21.98;100.00
59053;BME280;44843;44.728;10.396;2023-07-08T04:06:16;100949.69;;;22.12;100.00
59053;BME280;44843;44.728;10.396;2023-07-08T04:08:42;100956.47;;;22.07;100.00
59053;BME280;44843;44.728;10.396;2023-07-08T04:11:12;100970.31;;;22.28;100.00
59053;BME280;44843;44.728;10.396;2023-07-08T04:13:38;100980.41;;;22.42;100.00
59053;BME280;44843;44.728;10.396;2023-07-08T04:16:05;100982.31;;;22.50;100.00
59053;BME280;44843;44.728;10.396;2023-07-08T04:18:31;100982.75;;;22.46;100.00
59053;BME280;44843;44.728;10.396;2023-07-08T04:20:56;100987.00;;;22.38;100.00
59053;BME280;44843;44.728;10.396;2023-07-08T04:23:22;100989.97;;;22.35;100.00
59053;BME280;44843;44.728;10.396;2023-07-08T04:25:50;100997.25;;;22.33;100.00
59053;BME280;44843;44.728;10.396;2023-07-08T04:28:16;100987.81;;;22.39;100.00
59053;BME280;44843;44.728;10.396;2023-07-08T04:30:42;100989.31;;;21.50;100.00
59053;BME280;44843;44.728;10.396;2023-07-08T04:33:08;100997.66;;;22.11;100.00
59053;BME280;44843;44.728;10.396;2023-07-08T04:35:35;100999.22;;;22.31;100.00
59053;BME280;44843;44.728;10.396;2023-07-08T04:38:01;100997.00;;;22.62;100.00
59053;BME280;44843;44.728;10.396;2023-07-08T04:40:35;100994.09;;;22.92;100.00
59053;BME280;44843;44.728;10.396;2023-07-08T04:43:05;101006.38;;;22.93;100.00
59053;BME280;44843;44.728;10.396;2023-07-08T04:45:30;101003.22;;;23.41;100.00
59053;BME280;44843;44.728;10.396;2023-07-08T04:47:56;101008.13;;;23.89;100.00
59053;BME280;44843;44.728;10.396;2023-07-08T04:50:21;100989.47;;;24.56;100.00
59053;BME280;44843;44.728;10.396;2023-07-08T04:52:47;100982.56;;;25.19;100.00
59053;BME280;44843;44.728;10.396;2023-07-08T04:55:13;100974.06;;;25.32;100.00
59053;BME280;44843;44.728;10.396;2023-07-08T04:57:38;100959.97;;;25.85;100.00
59053;BME280;44843;44.728;10.396;2023-07-08T05:00:06;100976.13;;;26.69;99.63
59053;BME280;44843;44.728;10.396;2023-07-08T05:02:35;100975.97;;;26.25;100.00
59053;BME280;44843;44.728;10.396;2023-07-08T05:05:01;100960.41;;;25.66;100.00
59053;BME280;44843;44.728;10.396;2023-07-08T05:07:27;100953.13;;;24.38;100.00
59053;BME280;44843;44.728;10.396;2023-07-08T05:09:52;100953.91;;;23.55;100.00
59053;BME280;44843;44.728;10.396;2023-07-08T05:12:18;100938.63;;;22.97;100.00
59053;BME280;44843;44.728;10.396;2023-07-08T05:14:43;100949.38;;;22.69;100.00
59053;BME280;44843;44.728;10.396;2023-07-08T05:17:08;100968.84;;;22.52;100.00
59053;BME280;44843;44.728;10.396;2023-07-08T05:19:34;100969.75;;;22.42;100.00
59053;BME280;44843;44.728;10.396;2023-07-08T05:21:59;100973.03;;;22.36;100.00
59053;BME280;44843;44.728;10.396;2023-07-08T05:24:25;100982.13;;;22.34;100.00
59053;BME280;44843;44.728;10.396;2023-07-08T05:26:50;100975.75;;;22.45;100.00
59053;BME280;44843;44.728;10.396;2023-07-08T05:29:16;100981.53;;;22.40;100.00
59053;BME280;44843;44.728;10.396;2023-07-08T05:31:41;100984.63;;;22.53;100.00
59053;BME280;44843;44.728;10.396;2023-07-08T05:34:06;100975.16;;;22.51;100.00
59053;BME280;44843;44.728;10.396;2023-07-08T05:36:32;100964.59;;;22.59;100.00
59053;BME280;44843;44.728;10.396;2023-07-08T05:38:57;100952.22;;;22.50;100.00
59053;BME280;44843;44.728;10.396;2023-07-08T05:41:22;100943.50;;;22.57;100.00
59053;BME280;44843;44.728;10.396;2023-07-08T05:43:48;100938.13;;;22.75;100.00
59053;BME280;44843;44.728;10.396;2023-07-08T05:46:13;100927.28;;;22.69;100.00
59053;BME280;44843;44.728;10.396;2023-07-08T05:48:39;100948.38;;;22.88;100.00
59053;BME280;44843;44.728;10.396;2023-07-08T05:51:04;100945.78;;;23.22;100.00
59053;BME280;44843;44.728;10.396;2023-07-08T05:53:30;100942.00;;;24.51;100.00
59053;BME280;44843;44.728;10.396;2023-07-08T05:55:55;100942.13;;;27.52;100.00
59053;BME280;44843;44.728;10.396;2023-07-08T05:58:21;100952.47;;;27.11;99.67
59053;BME280;44843;44.728;10.396;2023-07-08T06:00:47;100945.63;;;28.47;90.68
59053;BME280;44843;44.728;10.396;2023-07-08T06:03:12;100953.59;;;30.95;72.71
59053;BME280;44843;44.728;10.396;2023-07-08T06:05:38;100954.72;;;32.73;61.33
59053;BME280;44843;44.728;10.396;2023-07-08T06:08:05;100949.16;;;33.30;56.76
59053;BME280;44843;44.728;10.396;2023-07-08T06:10:30;100951.78;;;33.36;55.91
59053;BME280;44843;44.728;10.396;2023-07-08T06:12:56;100963.47;;;33.49;54.77
59053;BME280;44843;44.728;10.396;2023-07-08T06:15:21;100966.19;;;33.30;53.72
59053;BME280;44843;44.728;10.396;2023-07-08T06:17:46;100972.06;;;33.64;54.29
59053;BME280;44843;44.728;10.396;2023-07-08T06:20:12;100968.75;;;33.43;55.79
59053;BME280;44843;44.728;10.396;2023-07-08T06:22:37;100971.75;;;33.17;56.03
59053;BME280;44843;44.728;10.396;2023-07-08T06:25:04;100966.31;;;32.98;56.13
59053;BME280;44843;44.728;10.396;2023-07-08T06:27:29;100954.31;;;33.50;55.04
59053;BME280;44843;44.728;10.396;2023-07-08T06:29:55;100942.47;;;32.95;56.43
59053;BME280;44843;44.728;10.396;2023-07-08T06:32:20;100926.16;;;33.09;56.69
59053;BME280;44843;44.728;10.396;2023-07-08T06:34:45;100915.22;;;32.03;60.62
59053;BME280;44843;44.728;10.396;2023-07-08T06:37:11;100932.56;;;29.70;75.38
59053;BME280;44843;44.728;10.396;2023-07-08T06:39:36;100917.44;;;28.51;89.86
59053;BME280;44843;44.728;10.396;2023-07-08T06:42:02;100927.66;;;27.47;99.11
59053;BME280;44843;44.728;10.396;2023-07-08T06:44:27;100924.06;;;27.10;100.00
59053;BME280;44843;44.728;10.396;2023-07-08T06:46:52;100928.38;;;27.11;100.00
59053;BME280;44843;44.728;10.396;2023-07-08T06:49:18;100931.75;;;27.28;100.00
59053;BME280;44843;44.728;10.396;2023-07-08T06:51:43;100934.47;;;27.20;100.00
59053;BME280;44843;44.728;10.396;2023-07-08T06:54:11;100935.03;;;27.15;100.00
59053;BME280;44843;44.728;10.396;2023-07-08T06:56:40;100941.22;;;26.48;100.00
59053;BME280;44843;44.728;10.396;2023-07-08T06:59:07;100953.56;;;26.72;100.00
59053;BME280;44843;44.728;10.396;2023-07-08T07:01:33;100960.94;;;26.70;100.00
59053;BME280;44843;44.728;10.396;2023-07-08T07:03:59;100957.34;;;26.92;100.00
59053;BME280;44843;44.728;10.396;2023-07-08T07:06:25;100958.06;;;26.71;100.00
59053;BME280;44843;44.728;10.396;2023-07-08T07:08:50;100958.84;;;26.11;100.00
59053;BME280;44843;44.728;10.396;2023-07-08T07:11:16;100950.84;;;26.57;100.00
59053;BME280;44843;44.728;10.396;2023-07-08T07:13:41;100956.78;;;26.82;100.00
59053;BME280;44843;44.728;10.396;2023-07-08T07:16:07;100959.75;;;27.17;100.00
59053;BME280;44843;44.728;10.396;2023-07-08T07:18:32;100955.66;;;27.44;99.36
59053;BME280;44843;44.728;10.396;2023-07-08T07:20:58;100955.63;;;27.15;99.64
59053;BME280;44843;44.728;10.396;2023-07-08T07:23:24;100944.06;;;26.46;100.00
59053;BME280;44843;44.728;10.396;2023-07-08T07:25:49;100947.63;;;26.16;100.00
59053;BME280;44843;44.728;10.396;2023-07-08T07:28:16;100935.16;;;25.77;100.00
59053;BME280;44843;44.728;10.396;2023-07-08T07:30:43;100939.50;;;26.09;100.00
59053;BME280;44843;44.728;10.396;2023-07-08T07:33:09;100941.50;;;26.53;100.00
59053;BME280;44843;44.728;10.396;2023-07-08T07:35:35;100948.50;;;26.77;100.00
59053;BME280;44843;44.728;10.396;2023-07-08T07:38:00;100941.94;;;26.80;100.00
59053;BME280;44843;44.728;10.396;2023-07-08T07:40:26;100942.97;;;26.93;100.00
59053;BME280;44843;44.728;10.396;2023-07-08T07:42:51;100945.88;;;26.69;100.00
59053;BME280;44843;44.728;10.396;2023-07-08T07:45:16;100950.66;;;27.11;100.00
59053;BME280;44843;44.728;10.396;2023-07-08T07:47:42;100953.47;;;26.80;100.00
59053;BME280;44843;44.728;10.396;2023-07-08T07:50:08;100953.22;;;27.05;100.00
59053;BME280;44843;44.728;10.396;2023-07-08T07:52:34;100960.31;;;27.12;100.00
59053;BME280;44843;44.728;10.396;2023-07-08T07:55:00;100959.63;;;26.66;100.00
59053;BME280;44843;44.728;10.396;2023-07-08T07:57:26;100962.53;;;27.09;100.00
59053;BME280;44843;44.728;10.396;2023-07-08T07:59:51;100965.69;;;27.12;100.00
59053;BME280;44843;44.728;10.396;2023-07-08T08:02:17;100968.84;;;27.46;99.18
59053;BME280;44843;44.728;10.396;2023-07-08T08:04:43;100976.69;;;27.32;100.00
59053;BME280;44843;44.728;10.396;2023-07-08T08:07:08;100984.50;;;27.19;100.00
59053;BME280;44843;44.728;10.396;2023-07-08T08:09:36;100983.09;;;26.79;100.00
59053;BME280;44843;44.728;10.396;2023-07-08T08:12:03;100983.84;;;26.87;100.00
59053;BME280;44843;44.728;10.396;2023-07-08T08:14:28;100986.28;;;27.42;100.00
59053;BME280;44843;44.728;10.396;2023-07-08T08:16:54;100986.94;;;27.44;100.00
59053;BME280;44843;44.728;10.396;2023-07-08T08:19:19;100984.63;;;26.73;100.00
59053;BME280;44843;44.728;10.396;2023-07-08T08:21:45;100988.66;;;26.92;100.00
59053;BME280;44843;44.728;10.396;2023-07-08T08:24:10;100989.00;;;27.27;100.00
59053;BME280;44843;44.728;10.396;2023-07-08T08:26:36;100990.13;;;26.95;100.00
59053;BME280;44843;44.728;10.396;2023-07-08T08:29:02;100989.97;;;26.73;100.00
59053;BME280;44843;44.728;10.396;2023-07-08T08:31:27;100994.19;;;27.05;100.00
59053;BME280;44843;44.728;10.396;2023-07-08T08:33:53;100995.03;;;27.06;100.00
59053;BME280;44843;44.728;10.396;2023-07-08T08:36:18;100985.53;;;27.33;99.66
59053;BME280;44843;44.728;10.396;2023-07-08T08:38:46;100989.94;;;27.11;97.71
59053;BME280;44843;44.728;10.396;2023-07-08T08:41:23;100983.44;;;27.28;96.79
59053;BME280;44843;44.728;10.396;2023-07-08T08:43:53;100985.53;;;27.48;95.77
59053;BME280;44843;44.728;10.396;2023-07-08T08:49:28;100986.50;;;27.77;94.91
59053;BME280;44843;44.728;10.396;2023-07-08T08:51:58;100989.84;;;27.79;96.74
59053;BME280;44843;44.728;10.396;2023-07-08T08:54:24;100993.81;;;27.98;96.82
59053;BME280;44843;44.728;10.396;2023-07-08T08:59:53;100991.78;;;27.70;94.84
59053;BME280;44843;44.728;10.396;2023-07-08T09:02:39;100989.84;;;27.79;92.56
59053;BME280;44843;44.728;10.396;2023-07-08T09:05:08;100984.06;;;28.11;90.81
59053;BME280;44843;44.728;10.396;2023-07-08T09:07:45;100997.69;;;27.80;82.91
59053;BME280;44843;44.728;10.396;2023-07-08T09:12:50;100995.03;;;27.95;89.04
59053;BME280;44843;44.728;10.396;2023-07-08T09:15:16;100996.97;;;27.71;89.31
59053;BME280;44843;44.728;10.396;2023-07-08T09:17:42;101001.44;;;27.49;86.37
59053;BME280;44843;44.728;10.396;2023-07-08T09:20:20;101002.00;;;27.60;92.52
59053;BME280;44843;44.728;10.396;2023-07-08T09:22:53;100995.38;;;27.92;85.02
59053;BME280;44843;44.728;10.396;2023-07-08T09:25:52;100995.00;;;28.10;90.05
59053;BME280;44843;44.728;10.396;2023-07-08T09:28:18;100996.16;;;27.86;86.90
59053;BME280;44843;44.728;10.396;2023-07-08T09:30:48;100981.41;;;27.97;82.19
59053;BME280;44843;44.728;10.396;2023-07-08T09:33:17;100985.44;;;27.86;84.43
59053;BME280;44843;44.728;10.396;2023-07-08T09:35:46;100995.63;;;28.12;77.21
59053;BME280;44843;44.728;10.396;2023-07-08T09:38:17;100989.81;;;28.08;79.45
59053;BME280;44843;44.728;10.396;2023-07-08T09:40:48;100990.66;;;28.30;83.99
59053;BME280;44843;44.728;10.396;2023-07-08T09:45:43;100984.53;;;28.37;79.11
59053;BME280;44843;44.728;10.396;2023-07-08T09:48:23;100983.63;;;28.51;76.02
59053;BME280;44843;44.728;10.396;2023-07-08T09:50:51;100981.72;;;28.23;74.81
59053;BME280;44843;44.728;10.396;2023-07-08T09:53:17;100977.19;;;28.24;77.43
59053;BME280;44843;44.728;10.396;2023-07-08T09:55:42;100972.66;;;28.67;77.58
59053;BME280;44843;44.728;10.396;2023-07-08T09:58:13;100968.00;;;28.54;75.09
59053;BME280;44843;44.728;10.396;2023-07-08T10:00:41;100973.53;;;28.53;73.35
59053;BME280;44843;44.728;10.396;2023-07-08T10:03:19;100979.22;;;28.22;72.91
59053;BME280;44843;44.728;10.396;2023-07-08T10:05:47;100973.91;;;28.07;70.03
59053;BME280;44843;44.728;10.396;2023-07-08T10:08:17;100974.19;;;28.12;68.96
59053;BME280;44843;44.728;10.396;2023-07-08T10:10:45;100981.06;;;28.00;65.80
59053;BME280;44843;44.728;10.396;2023-07-08T10:13:57;100977.06;;;28.32;64.26
59053;BME280;44843;44.728;10.396;2023-07-08T10:16:15;100974.81;;;28.35;62.37
59053;BME280;44843;44.728;10.396;2023-07-08T10:18:42;100971.88;;;28.30;61.94
59053;BME280;44843;44.728;10.396;2023-07-08T10:26:59;100966.34;;;28.53;59.16
59053;BME280;44843;44.728;10.396;2023-07-08T10:29:43;100959.50;;;28.79;55.92
59053;BME280;44843;44.728;10.396;2023-07-08T10:35:04;100958.59;;;28.93;53.59
59053;BME280;44843;44.728;10.396;2023-07-08T10:37:47;100953.69;;;28.69;54.66
59053;BME280;44843;44.728;10.396;2023-07-08T10:40:21;100951.78;;;28.63;53.70
59053;BME280;44843;44.728;10.396;2023-07-08T10:42:55;100943.75;;;28.98;52.35
59053;BME280;44843;44.728;10.396;2023-07-08T10:45:40;100938.72;;;29.16;51.06
59053;BME280;44843;44.728;10.396;2023-07-08T10:48:25;100945.72;;;29.10;54.36
59053;BME280;44843;44.728;10.396;2023-07-08T10:55:58;100932.63;;;29.01;55.05
59053;BME280;44843;44.728;10.396;2023-07-08T11:03:31;100938.63;;;29.03;58.05
59053;BME280;44843;44.728;10.396;2023-07-08T11:08:46;100927.38;;;29.21;57.53
59053;BME280;44843;44.728;10.396;2023-07-08T11:11:36;100934.16;;;29.16;56.43
59053;BME280;44843;44.728;10.396;2023-07-08T11:14:22;100932.13;;;29.19;57.45
59053;BME280;44843;44.728;10.396;2023-07-08T11:17:20;100933.75;;;29.13;58.30
59053;BME280;44843;44.728;10.396;2023-07-08T11:19:54;100923.13;;;29.40;57.22
59053;BME280;44843;44.728;10.396;2023-07-08T11:22:22;100922.22;;;29.19;56.38
59053;BME280;44843;44.728;10.396;2023-07-08T11:24:49;100921.84;;;28.94;54.62
59053;BME280;44843;44.728;10.396;2023-07-08T11:27:34;100919.41;;;29.06;57.17
59053;BME280;44843;44.728;10.396;2023-07-08T11:30:06;100918.97;;;28.95;55.12
59053;BME280;44843;44.728;10.396;2023-07-08T11:32:39;100918.06;;;29.16;55.46
59053;BME280;44843;44.728;10.396;2023-07-08T11:35:16;100915.59;;;29.15;52.91
59053;BME280;44843;44.728;10.396;2023-07-08T11:37:44;100907.00;;;29.33;51.81
59053;BME280;44843;44.728;10.396;2023-07-08T11:40:22;100903.09;;;29.42;50.02
59053;BME280;44843;44.728;10.396;2023-07-08T11:42:53;100896.97;;;29.68;50.83
59053;BME280;44843;44.728;10.396;2023-07-08T11:45:31;100904.06;;;29.76;53.76
59053;BME280;44843;44.728;10.396;2023-07-08T11:48:45;100896.22;;;29.88;52.05
59053;BME280;44843;44.728;10.396;2023-07-08T11:51:06;100892.91;;;29.86;48.67
59053;BME280;44843;44.728;10.396;2023-07-08T11:53:38;100898.50;;;29.97;46.20
59053;BME280;44843;44.728;10.396;2023-07-08T12:03:54;100892.50;;;29.89;49.38
59053;BME280;44843;44.728;10.396;2023-07-08T12:08:59;100907.50;;;29.56;47.07
59053;BME280;44843;44.728;10.396;2023-07-08T12:11:27;100908.78;;;29.67;46.80
59053;BME280;44843;44.728;10.396;2023-07-08T12:13:58;100903.03;;;29.77;45.67
59053;BME280;44843;44.728;10.396;2023-07-08T12:16:25;100896.41;;;29.73;47.41
59053;BME280;44843;44.728;10.396;2023-07-08T12:18:52;100897.88;;;29.82;47.68
59053;BME280;44843;44.728;10.396;2023-07-08T12:21:18;100898.78;;;29.41;48.58
59053;BME280;44843;44.728;10.396;2023-07-08T12:23:47;100897.78;;;29.55;48.88
59053;BME280;44843;44.728;10.396;2023-07-08T12:26:14;100893.66;;;29.60;48.51
59053;BME280;44843;44.728;10.396;2023-07-08T12:28:40;100895.59;;;29.72;49.43
59053;BME280;44843;44.728;10.396;2023-07-08T12:31:16;100884.84;;;29.86;49.18
59053;BME280;44843;44.728;10.396;2023-07-08T12:33:43;100880.72;;;29.76;46.83
59053;BME280;44843;44.728;10.396;2023-07-08T12:36:13;100882.56;;;29.76;46.99
59053;BME280;44843;44.728;10.396;2023-07-08T12:38:43;100880.53;;;29.98;49.71
59053;BME280;44843;44.728;10.396;2023-07-08T12:41:41;100880.31;;;30.06;50.25
59053;BME280;44843;44.728;10.396;2023-07-08T12:44:14;100880.31;;;29.99;46.10
59053;BME280;44843;44.728;10.396;2023-07-08T12:46:41;100882.00;;;30.21;46.21
59053;BME280;44843;44.728;10.396;2023-07-08T12:49:08;100874.13;;;30.12;44.83
59053;BME280;44843;44.728;10.396;2023-07-08T12:51:33;100880.31;;;30.06;47.06
59053;BME280;44843;44.728;10.396;2023-07-08T12:53:59;100865.44;;;30.17;45.72
59053;BME280;44843;44.728;10.396;2023-07-08T12:56:24;100876.41;;;30.15;46.09
59053;BME280;44843;44.728;10.396;2023-07-08T12:58:52;100873.72;;;30.15;46.77
59053;BME280;44843;44.728;10.396;2023-07-08T13:01:20;100870.41;;;30.13;47.87
59053;BME280;44843;44.728;10.396;2023-07-08T13:03:49;100870.00;;;30.16;47.75
59053;BME280;44843;44.728;10.396;2023-07-08T13:06:17;100872.88;;;30.15;48.35
59053;BME280;44843;44.728;10.396;2023-07-08T13:08:45;100870.81;;;30.17;47.70
59053;BME280;44843;44.728;10.396;2023-07-08T13:11:13;100867.09;;;30.11;48.20
59053;BME280;44843;44.728;10.396;2023-07-08T13:13:49;100868.13;;;30.17;48.43
59053;BME280;44843;44.728;10.396;2023-07-08T13:16:16;100858.00;;;30.12;48.46
59053;BME280;44843;44.728;10.396;2023-07-08T13:18:42;100866.06;;;29.99;48.43
59053;BME280;44843;44.728;10.396;2023-07-08T13:21:15;100868.31;;;29.95;48.28
59053;BME280;44843;44.728;10.396;2023-07-08T13:23:41;100860.47;;;30.01;48.69
59053;BME280;44843;44.728;10.396;2023-07-08T13:26:15;100860.69;;;30.06;48.59